KFOD

Fort Dodge Regional Airport

Fort Dodge, Iowa, USA
KFOD 181132Z 1812/1912 VRB04KT P6SM SCT040 BKN100 FM182000 VRB03KT 4SM -TSRA BR SCT035CB BKN070 FM190300 10006KT 6SM SHRA SCT020 OVC035 FM190900 15007KT P6SM VCSH OVC040
Issued Valid From Valid To
Jun-18 @ 11:32 UTC
(2 hours ago)
Jun-18 @ 12:00 UTC
(an hour ago)
Jun-19 @ 12:00 UTC
(in 23 hours)
Jun-18 @ 12:00 to Jun-18 @ 20:00
KFOD 181132Z 1812/1912 VRB04KT P6SM SCT040 BKN100
Wind Visibility Clouds
Variable at 4 knots Greater than 6 miles
  • Scattered at 4,000' AGL
  • Broken at 10,000' AGL
From Jun-18 @ 20:00 to Jun-19 @ 03:00
FM182000 VRB03KT 4SM -TSRA BR SCT035CB BKN070
Wind Visibility Clouds Conditions
Variable at 3 knots 4 miles
  • Scattered at 3,500' AGL
  • Broken at 7,000' AGL
  • Light Thunderstorm
  • Light Rain
  • Mist
From Jun-19 @ 03:00 to Jun-19 @ 09:00
FM190300 10006KT 6SM SHRA SCT020 OVC035
Wind Visibility Clouds Conditions
100° at 6 knots 6 miles
  • Scattered at 2,000' AGL
  • Overcast at 3,500' AGL
  • Rain
From Jun-19 @ 09:00 to Jun-19 @ 12:00
FM190900 15007KT P6SM VCSH OVC040
Wind Visibility Clouds
150° at 7 knots Greater than 6 miles
  • Overcast at 4,000' AGL
KFOD 181132Z 1812/1912 VRB04KT P6SM SCT040 BKN100 FM182000 VRB03KT 4SM -TSRA BR SCT035CB BKN070 FM190300 10006KT 6SM SHRA SCT020 OVC035 FM190900 15007KT P6SM VCSH OVC040
Issued Jun-18 @ 11:32 UTC
(2 hours ago)
Valid From Jun-18 @ 12:00 UTC
(an hour ago)
Valid To Jun-19 @ 12:00 UTC
(in 23 hours)
Jun-18 @ 12:00 - Jun-18 @ 20:00
Wind Visibility
Variable at 4 knots Greater than 6 miles
Clouds
  • Scattered at 4,000' AGL
  • Broken at 10,000' AGL
From Jun-18 @ 20:00 - Jun-19 @ 03:00
Wind Visibility
Variable at 3 knots 4 miles
Clouds
  • Scattered at 3,500' AGL
  • Broken at 7,000' AGL
Conditions
  • Light Thunderstorm
  • Light Rain
  • Mist
From Jun-19 @ 03:00 - Jun-19 @ 09:00
Wind Visibility
100° at 6 knots 6 miles
Clouds
  • Scattered at 2,000' AGL
  • Overcast at 3,500' AGL
Conditions
  • Rain
From Jun-19 @ 09:00 - Jun-19 @ 12:00
Wind Visibility
150° at 7 knots Greater than 6 miles
Clouds
  • Overcast at 4,000' AGL